sensor_id;sensor_type;location;lat;lon;timestamp;P1;durP1;ratioP1;P2;durP2;ratioP2
64085;SDS011;50333;47.436;21.390;2022-11-15T00:00:48;17.37;;;14.30;;
64085;SDS011;50333;47.436;21.390;2022-11-15T00:03:36;16.15;;;13.62;;
64085;SDS011;50333;47.436;21.390;2022-11-15T00:06:42;18.42;;;14.75;;
64085;SDS011;50333;47.436;21.390;2022-11-15T00:09:49;17.17;;;14.65;;
64085;SDS011;50333;47.436;21.390;2022-11-15T00:12:55;18.23;;;14.40;;
64085;SDS011;50333;47.436;21.390;2022-11-15T00:15:42;15.27;;;13.50;;
64085;SDS011;50333;47.436;21.390;2022-11-15T00:18:48;17.10;;;13.95;;
64085;SDS011;50333;47.436;21.390;2022-11-15T00:21:55;15.20;;;12.95;;
64085;SDS011;50333;47.436;21.390;2022-11-15T00:25:01;16.42;;;13.73;;
64085;SDS011;50333;47.436;21.390;2022-11-15T00:28:07;16.30;;;13.15;;
64085;SDS011;50333;47.436;21.390;2022-11-15T00:31:00;17.45;;;13.98;;
64085;SDS011;50333;47.436;21.390;2022-11-15T00:33:48;17.27;;;13.77;;
64085;SDS011;50333;47.436;21.390;2022-11-15T00:36:54;16.52;;;13.23;;
64085;SDS011;50333;47.436;21.390;2022-11-15T00:40:00;16.12;;;13.57;;
64085;SDS011;50333;47.436;21.390;2022-11-15T00:43:06;19.00;;;14.10;;
64085;SDS011;50333;47.436;21.390;2022-11-15T00:46:12;16.17;;;13.35;;
64085;SDS011;50333;47.436;21.390;2022-11-15T00:49:21;15.20;;;12.75;;
64085;SDS011;50333;47.436;21.390;2022-11-15T00:52:27;16.52;;;13.77;;
64085;SDS011;50333;47.436;21.390;2022-11-15T00:55:15;16.33;;;13.23;;
64085;SDS011;50333;47.436;21.390;2022-11-15T00:58:05;17.77;;;14.95;;
64085;SDS011;50333;47.436;21.390;2022-11-15T01:01:12;18.87;;;14.95;;
64085;SDS011;50333;47.436;21.390;2022-11-15T01:04:21;15.93;;;12.82;;
64085;SDS011;50333;47.436;21.390;2022-11-15T01:07:28;16.45;;;14.27;;
64085;SDS011;50333;47.436;21.390;2022-11-15T01:10:36;14.23;;;12.55;;
64085;SDS011;50333;47.436;21.390;2022-11-15T01:13:43;16.75;;;13.40;;
64085;SDS011;50333;47.436;21.390;2022-11-15T01:16:49;19.33;;;14.15;;
64085;SDS011;50333;47.436;21.390;2022-11-15T01:19:55;17.40;;;13.50;;
64085;SDS011;50333;47.436;21.390;2022-11-15T01:23:02;15.43;;;13.35;;
64085;SDS011;50333;47.436;21.390;2022-11-15T01:26:10;16.02;;;13.43;;
64085;SDS011;50333;47.436;21.390;2022-11-15T01:28:58;17.48;;;14.52;;
64085;SDS011;50333;47.436;21.390;2022-11-15T01:31:48;17.55;;;13.77;;
64085;SDS011;50333;47.436;21.390;2022-11-15T01:34:35;16.02;;;13.45;;
64085;SDS011;50333;47.436;21.390;2022-11-15T01:37:29;15.27;;;13.68;;
64085;SDS011;50333;47.436;21.390;2022-11-15T01:40:16;16.08;;;13.62;;
64085;SDS011;50333;47.436;21.390;2022-11-15T01:43:24;18.05;;;15.05;;
64085;SDS011;50333;47.436;21.390;2022-11-15T01:49:38;22.98;;;16.12;;
64085;SDS011;50333;47.436;21.390;2022-11-15T01:52:28;19.35;;;14.50;;
64085;SDS011;50333;47.436;21.390;2022-11-15T01:55:21;15.70;;;13.25;;
64085;SDS011;50333;47.436;21.390;2022-11-15T01:58:11;16.10;;;13.68;;
64085;SDS011;50333;47.436;21.390;2022-11-15T02:01:01;17.92;;;15.00;;
64085;SDS011;50333;47.436;21.390;2022-11-15T02:04:15;18.00;;;14.13;;
64085;SDS011;50333;47.436;21.390;2022-11-15T02:07:24;15.23;;;13.13;;
64085;SDS011;50333;47.436;21.390;2022-11-15T02:10:32;15.18;;;12.82;;
64085;SDS011;50333;47.436;21.390;2022-11-15T02:13:19;15.88;;;12.77;;
64085;SDS011;50333;47.436;21.390;2022-11-15T02:19:26;13.80;;;12.37;;
64085;SDS011;50333;47.436;21.390;2022-11-15T02:22:42;18.73;;;13.30;;
64085;SDS011;50333;47.436;21.390;2022-11-15T02:32:29;13.95;;;12.40;;
64085;SDS011;50333;47.436;21.390;2022-11-15T02:41:52;15.55;;;12.15;;
64085;SDS011;50333;47.436;21.390;2022-11-15T02:45:03;13.45;;;11.60;;
64085;SDS011;50333;47.436;21.390;2022-11-15T02:48:13;13.77;;;12.27;;
64085;SDS011;50333;47.436;21.390;2022-11-15T02:51:03;14.38;;;11.80;;
64085;SDS011;50333;47.436;21.390;2022-11-15T02:54:11;13.65;;;11.75;;
64085;SDS011;50333;47.436;21.390;2022-11-15T03:00:54;12.32;;;10.93;;
64085;SDS011;50333;47.436;21.390;2022-11-15T03:07:15;11.60;;;10.40;;
64085;SDS011;50333;47.436;21.390;2022-11-15T03:10:06;14.23;;;11.45;;
64085;SDS011;50333;47.436;21.390;2022-11-15T03:13:00;13.80;;;11.68;;
64085;SDS011;50333;47.436;21.390;2022-11-15T03:23:06;14.00;;;11.12;;
64085;SDS011;50333;47.436;21.390;2022-11-15T03:25:55;13.55;;;10.80;;
64085;SDS011;50333;47.436;21.390;2022-11-15T03:29:27;12.52;;;10.70;;
64085;SDS011;50333;47.436;21.390;2022-11-15T03:32:39;13.82;;;10.85;;
64085;SDS011;50333;47.436;21.390;2022-11-15T03:35:31;12.68;;;11.15;;
64085;SDS011;50333;47.436;21.390;2022-11-15T03:38:41;14.00;;;11.48;;
64085;SDS011;50333;47.436;21.390;2022-11-15T03:46:17;12.88;;;10.90;;
64085;SDS011;50333;47.436;21.390;2022-11-15T03:49:09;12.02;;;10.57;;
64085;SDS011;50333;47.436;21.390;2022-11-15T03:52:20;11.07;;;9.88;;
64085;SDS011;50333;47.436;21.390;2022-11-15T03:55:27;11.40;;;10.20;;
64085;SDS011;50333;47.436;21.390;2022-11-15T03:58:34;11.50;;;10.30;;
64085;SDS011;50333;47.436;21.390;2022-11-15T04:01:20;11.27;;;10.18;;
64085;SDS011;50333;47.436;21.390;2022-11-15T04:04:06;13.18;;;10.43;;
64085;SDS011;50333;47.436;21.390;2022-11-15T04:07:12;12.82;;;10.13;;
64085;SDS011;50333;47.436;21.390;2022-11-15T04:10:19;16.60;;;10.90;;
64085;SDS011;50333;47.436;21.390;2022-11-15T04:13:25;15.25;;;11.68;;
64085;SDS011;50333;47.436;21.390;2022-11-15T04:16:32;13.40;;;10.43;;
64085;SDS011;50333;47.436;21.390;2022-11-15T04:19:38;12.88;;;10.38;;
64085;SDS011;50333;47.436;21.390;2022-11-15T04:22:43;11.15;;;9.13;;
64085;SDS011;50333;47.436;21.390;2022-11-15T04:26:16;13.10;;;10.32;;
64085;SDS011;50333;47.436;21.390;2022-11-15T04:29:24;13.20;;;10.25;;
64085;SDS011;50333;47.436;21.390;2022-11-15T04:32:42;10.73;;;9.48;;
64085;SDS011;50333;47.436;21.390;2022-11-15T04:35:30;10.82;;;9.27;;
64085;SDS011;50333;47.436;21.390;2022-11-15T04:38:17;10.40;;;9.35;;
64085;SDS011;50333;47.436;21.390;2022-11-15T04:41:23;12.40;;;9.60;;
64085;SDS011;50333;47.436;21.390;2022-11-15T04:44:09;10.93;;;9.20;;
64085;SDS011;50333;47.436;21.390;2022-11-15T04:46:56;10.95;;;9.45;;
64085;SDS011;50333;47.436;21.390;2022-11-15T04:50:02;12.37;;;8.73;;
64085;SDS011;50333;47.436;21.390;2022-11-15T04:53:09;14.80;;;9.27;;
64085;SDS011;50333;47.436;21.390;2022-11-15T04:56:15;10.57;;;8.73;;
64085;SDS011;50333;47.436;21.390;2022-11-15T04:59:01;11.65;;;8.77;;
64085;SDS011;50333;47.436;21.390;2022-11-15T05:02:09;11.25;;;8.85;;
64085;SDS011;50333;47.436;21.390;2022-11-15T05:05:15;10.93;;;9.45;;
64085;SDS011;50333;47.436;21.390;2022-11-15T05:08:21;17.80;;;9.77;;
64085;SDS011;50333;47.436;21.390;2022-11-15T05:11:28;11.88;;;8.32;;
64085;SDS011;50333;47.436;21.390;2022-11-15T05:14:34;10.23;;;8.80;;
64085;SDS011;50333;47.436;21.390;2022-11-15T05:17:21;13.02;;;9.02;;
64085;SDS011;50333;47.436;21.390;2022-11-15T05:20:13;12.73;;;9.75;;
64085;SDS011;50333;47.436;21.390;2022-11-15T05:22:59;11.95;;;9.10;;
64085;SDS011;50333;47.436;21.390;2022-11-15T05:26:06;13.32;;;9.43;;
64085;SDS011;50333;47.436;21.390;2022-11-15T05:28:54;12.40;;;9.82;;
64085;SDS011;50333;47.436;21.390;2022-11-15T05:31:43;12.48;;;9.98;;
64085;SDS011;50333;47.436;21.390;2022-11-15T05:34:30;19.05;;;13.00;;
64085;SDS011;50333;47.436;21.390;2022-11-15T05:37:17;13.15;;;10.35;;
64085;SDS011;50333;47.436;21.390;2022-11-15T05:40:18;11.07;;;9.90;;
64085;SDS011;50333;47.436;21.390;2022-11-15T05:43:04;16.15;;;10.68;;
64085;SDS011;50333;47.436;21.390;2022-11-15T05:45:51;11.98;;;10.63;;
64085;SDS011;50333;47.436;21.390;2022-11-15T05:48:38;11.65;;;9.75;;
64085;SDS011;50333;47.436;21.390;2022-11-15T05:51:29;11.38;;;9.73;;
64085;SDS011;50333;47.436;21.390;2022-11-15T05:54:16;11.77;;;10.57;;
64085;SDS011;50333;47.436;21.390;2022-11-15T05:57:04;12.45;;;11.15;;
64085;SDS011;50333;47.436;21.390;2022-11-15T05:59:50;13.38;;;10.77;;
64085;SDS011;50333;47.436;21.390;2022-11-15T06:02:38;17.50;;;10.30;;
64085;SDS011;50333;47.436;21.390;2022-11-15T06:05:25;20.12;;;11.80;;
64085;SDS011;50333;47.436;21.390;2022-11-15T06:08:11;15.02;;;10.98;;
64085;SDS011;50333;47.436;21.390;2022-11-15T06:11:02;12.82;;;11.05;;
64085;SDS011;50333;47.436;21.390;2022-11-15T06:14:16;17.95;;;11.73;;
64085;SDS011;50333;47.436;21.390;2022-11-15T06:17:26;19.58;;;11.70;;
64085;SDS011;50333;47.436;21.390;2022-11-15T06:20:32;18.98;;;11.98;;
64085;SDS011;50333;47.436;21.390;2022-11-15T06:23:19;18.15;;;11.38;;
64085;SDS011;50333;47.436;21.390;2022-11-15T06:26:25;16.10;;;11.65;;
64085;SDS011;50333;47.436;21.390;2022-11-15T06:29:11;20.95;;;11.70;;
64085;SDS011;50333;47.436;21.390;2022-11-15T06:31:57;16.42;;;12.50;;
64085;SDS011;50333;47.436;21.390;2022-11-15T06:34:49;18.02;;;12.32;;
64085;SDS011;50333;47.436;21.390;2022-11-15T06:37:35;17.27;;;12.70;;
64085;SDS011;50333;47.436;21.390;2022-11-15T06:40:21;16.08;;;12.43;;
64085;SDS011;50333;47.436;21.390;2022-11-15T06:43:08;20.60;;;13.38;;
64085;SDS011;50333;47.436;21.390;2022-11-15T06:45:54;21.10;;;12.95;;
64085;SDS011;50333;47.436;21.390;2022-11-15T06:48:40;18.73;;;12.15;;
64085;SDS011;50333;47.436;21.390;2022-11-15T06:51:27;17.58;;;11.88;;
64085;SDS011;50333;47.436;21.390;2022-11-15T06:54:14;17.20;;;12.90;;
64085;SDS011;50333;47.436;21.390;2022-11-15T06:57:00;18.48;;;12.60;;
64085;SDS011;50333;47.436;21.390;2022-11-15T06:59:47;19.67;;;14.38;;
64085;SDS011;50333;47.436;21.390;2022-11-15T07:02:34;26.75;;;13.85;;
64085;SDS011;50333;47.436;21.390;2022-11-15T07:05:22;17.23;;;13.35;;
64085;SDS011;50333;47.436;21.390;2022-11-15T07:08:09;46.53;;;28.95;;
64085;SDS011;50333;47.436;21.390;2022-11-15T07:10:58;26.40;;;17.17;;
64085;SDS011;50333;47.436;21.390;2022-11-15T07:13:47;22.65;;;14.35;;
64085;SDS011;50333;47.436;21.390;2022-11-15T07:16:33;17.00;;;12.90;;
64085;SDS011;50333;47.436;21.390;2022-11-15T07:19:19;21.05;;;13.65;;
64085;SDS011;50333;47.436;21.390;2022-11-15T07:22:05;20.33;;;13.50;;
64085;SDS011;50333;47.436;21.390;2022-11-15T07:24:51;19.52;;;13.90;;
64085;SDS011;50333;47.436;21.390;2022-11-15T07:27:38;21.15;;;14.80;;
64085;SDS011;50333;47.436;21.390;2022-11-15T07:30:26;24.17;;;15.68;;
64085;SDS011;50333;47.436;21.390;2022-11-15T07:33:12;29.87;;;18.90;;
64085;SDS011;50333;47.436;21.390;2022-11-15T07:35:59;58.17;;;28.50;;
64085;SDS011;50333;47.436;21.390;2022-11-15T07:38:47;45.28;;;26.40;;
64085;SDS011;50333;47.436;21.390;2022-11-15T07:41:33;47.10;;;26.30;;
64085;SDS011;50333;47.436;21.390;2022-11-15T07:44:20;48.22;;;26.23;;
64085;SDS011;50333;47.436;21.390;2022-11-15T07:47:06;47.28;;;26.60;;
64085;SDS011;50333;47.436;21.390;2022-11-15T07:49:56;39.63;;;23.48;;
64085;SDS011;50333;47.436;21.390;2022-11-15T07:52:42;36.10;;;20.83;;
64085;SDS011;50333;47.436;21.390;2022-11-15T07:55:28;26.05;;;17.23;;
64085;SDS011;50333;47.436;21.390;2022-11-15T07:58:15;25.48;;;16.20;;
64085;SDS011;50333;47.436;21.390;2022-11-15T08:01:02;20.02;;;13.55;;
64085;SDS011;50333;47.436;21.390;2022-11-15T08:03:50;24.50;;;14.57;;
64085;SDS011;50333;47.436;21.390;2022-11-15T08:06:36;24.55;;;13.88;;
64085;SDS011;50333;47.436;21.390;2022-11-15T08:09:22;18.00;;;14.00;;
64085;SDS011;50333;47.436;21.390;2022-11-15T08:12:08;18.37;;;14.40;;
64085;SDS011;50333;47.436;21.390;2022-11-15T08:14:55;19.15;;;14.57;;
64085;SDS011;50333;47.436;21.390;2022-11-15T08:17:41;16.58;;;14.20;;
64085;SDS011;50333;47.436;21.390;2022-11-15T08:20:28;22.67;;;14.32;;
64085;SDS011;50333;47.436;21.390;2022-11-15T08:23:15;17.85;;;13.48;;
64085;SDS011;50333;47.436;21.390;2022-11-15T08:26:02;18.75;;;13.82;;
64085;SDS011;50333;47.436;21.390;2022-11-15T08:28:50;17.90;;;14.20;;
64085;SDS011;50333;47.436;21.390;2022-11-15T08:31:37;18.20;;;14.35;;
64085;SDS011;50333;47.436;21.390;2022-11-15T08:34:23;19.80;;;14.73;;
64085;SDS011;50333;47.436;21.390;2022-11-15T08:37:10;20.33;;;15.27;;
64085;SDS011;50333;47.436;21.390;2022-11-15T08:39:57;21.62;;;14.90;;
64085;SDS011;50333;47.436;21.390;2022-11-15T08:42:45;17.45;;;14.73;;
64085;SDS011;50333;47.436;21.390;2022-11-15T08:45:33;19.17;;;14.43;;
64085;SDS011;50333;47.436;21.390;2022-11-15T08:48:20;30.92;;;16.83;;
64085;SDS011;50333;47.436;21.390;2022-11-15T08:51:07;28.38;;;17.08;;
64085;SDS011;50333;47.436;21.390;2022-11-15T08:53:53;30.52;;;17.77;;
64085;SDS011;50333;47.436;21.390;2022-11-15T08:56:39;24.63;;;16.27;;
64085;SDS011;50333;47.436;21.390;2022-11-15T08:59:27;24.55;;;15.05;;
64085;SDS011;50333;47.436;21.390;2022-11-15T09:02:13;24.02;;;15.85;;
64085;SDS011;50333;47.436;21.390;2022-11-15T09:05:00;20.70;;;14.52;;
64085;SDS011;50333;47.436;21.390;2022-11-15T09:07:47;20.08;;;14.65;;
64085;SDS011;50333;47.436;21.390;2022-11-15T09:10:33;20.17;;;14.82;;
64085;SDS011;50333;47.436;21.390;2022-11-15T09:13:19;18.87;;;15.05;;
64085;SDS011;50333;47.436;21.390;2022-11-15T09:16:05;21.77;;;16.02;;
64085;SDS011;50333;47.436;21.390;2022-11-15T09:18:52;24.48;;;15.63;;
64085;SDS011;50333;47.436;21.390;2022-11-15T09:21:40;21.17;;;15.35;;
64085;SDS011;50333;47.436;21.390;2022-11-15T09:24:27;26.75;;;16.70;;
64085;SDS011;50333;47.436;21.390;2022-11-15T09:27:12;29.50;;;17.08;;
64085;SDS011;50333;47.436;21.390;2022-11-15T09:30:00;19.62;;;14.93;;
64085;SDS011;50333;47.436;21.390;2022-11-15T09:32:47;23.50;;;17.02;;
64085;SDS011;50333;47.436;21.390;2022-11-15T09:35:33;23.87;;;16.98;;
64085;SDS011;50333;47.436;21.390;2022-11-15T09:38:19;23.48;;;17.17;;
64085;SDS011;50333;47.436;21.390;2022-11-15T09:47:35;31.90;;;18.37;;
64085;SDS011;50333;47.436;21.390;2022-11-15T09:50:17;22.05;;;17.77;;
64085;SDS011;50333;47.436;21.390;2022-11-15T09:52:56;29.40;;;18.23;;
64085;SDS011;50333;47.436;21.390;2022-11-15T09:55:36;25.77;;;19.15;;
64085;SDS011;50333;47.436;21.390;2022-11-15T09:58:50;28.20;;;18.15;;
64085;SDS011;50333;47.436;21.390;2022-11-15T10:04:03;28.10;;;18.95;;
64085;SDS011;50333;47.436;21.390;2022-11-15T10:06:39;26.67;;;18.83;;
64085;SDS011;50333;47.436;21.390;2022-11-15T10:12:08;33.75;;;20.62;;
64085;SDS011;50333;47.436;21.390;2022-11-15T10:14:38;28.50;;;20.77;;
64085;SDS011;50333;47.436;21.390;2022-11-15T10:17:22;29.17;;;22.10;;
64085;SDS011;50333;47.436;21.390;2022-11-15T10:20:21;27.65;;;20.92;;
64085;SDS011;50333;47.436;21.390;2022-11-15T10:22:51;26.00;;;20.60;;
64085;SDS011;50333;47.436;21.390;2022-11-15T10:25:27;29.42;;;21.00;;
64085;SDS011;50333;47.436;21.390;2022-11-15T10:31:20;32.70;;;20.98;;
64085;SDS011;50333;47.436;21.390;2022-11-15T10:34:08;34.42;;;21.73;;
64085;SDS011;50333;47.436;21.390;2022-11-15T10:37:03;29.60;;;20.65;;
64085;SDS011;50333;47.436;21.390;2022-11-15T10:39:30;29.85;;;21.40;;
64085;SDS011;50333;47.436;21.390;2022-11-15T10:42:14;28.73;;;20.80;;
64085;SDS011;50333;47.436;21.390;2022-11-15T10:45:29;29.90;;;20.90;;
64085;SDS011;50333;47.436;21.390;2022-11-15T10:48:20;25.45;;;20.35;;
64085;SDS011;50333;47.436;21.390;2022-11-15T10:50:51;26.87;;;20.50;;
64085;SDS011;50333;47.436;21.390;2022-11-15T10:53:28;32.97;;;21.48;;
64085;SDS011;50333;47.436;21.390;2022-11-15T10:56:02;38.97;;;26.92;;
64085;SDS011;50333;47.436;21.390;2022-11-15T10:58:36;33.80;;;25.15;;
64085;SDS011;50333;47.436;21.390;2022-11-15T11:03:38;33.03;;;23.40;;
64085;SDS011;50333;47.436;21.390;2022-11-15T11:08:39;30.92;;;23.20;;
64085;SDS011;50333;47.436;21.390;2022-11-15T11:11:07;45.55;;;23.55;;
64085;SDS011;50333;47.436;21.390;2022-11-15T11:13:37;28.17;;;20.50;;
64085;SDS011;50333;47.436;21.390;2022-11-15T11:27:41;35.42;;;20.35;;
64085;SDS011;50333;47.436;21.390;2022-11-15T11:30:21;27.65;;;20.25;;
64085;SDS011;50333;47.436;21.390;2022-11-15T11:50:19;43.33;;;18.23;;
64085;SDS011;50333;47.436;21.390;2022-11-15T11:53:11;28.85;;;20.12;;
64085;SDS011;50333;47.436;21.390;2022-11-15T11:55:49;24.98;;;19.37;;
64085;SDS011;50333;47.436;21.390;2022-11-15T12:09:35;29.30;;;20.35;;
64085;SDS011;50333;47.436;21.390;2022-11-15T12:12:10;31.83;;;20.37;;
64085;SDS011;50333;47.436;21.390;2022-11-15T12:18:02;28.75;;;19.27;;
64085;SDS011;50333;47.436;21.390;2022-11-15T12:20:56;31.73;;;20.80;;
64085;SDS011;50333;47.436;21.390;2022-11-15T12:23:52;31.05;;;19.62;;
64085;SDS011;50333;47.436;21.390;2022-11-15T12:30:54;25.00;;;17.30;;
64085;SDS011;50333;47.436;21.390;2022-11-15T12:33:38;30.40;;;18.80;;
64085;SDS011;50333;47.436;21.390;2022-11-15T12:38:56;28.15;;;18.15;;
64085;SDS011;50333;47.436;21.390;2022-11-15T12:41:26;24.12;;;17.58;;
64085;SDS011;50333;47.436;21.390;2022-11-15T12:43:54;31.80;;;18.55;;
64085;SDS011;50333;47.436;21.390;2022-11-15T12:48:59;23.90;;;18.40;;
64085;SDS011;50333;47.436;21.390;2022-11-15T13:02:38;23.00;;;17.42;;
64085;SDS011;50333;47.436;21.390;2022-11-15T13:12:56;23.62;;;18.02;;
64085;SDS011;50333;47.436;21.390;2022-11-15T13:17:58;31.10;;;19.85;;
64085;SDS011;50333;47.436;21.390;2022-11-15T13:20:46;25.85;;;18.48;;
64085;SDS011;50333;47.436;21.390;2022-11-15T13:23:15;25.60;;;18.05;;
64085;SDS011;50333;47.436;21.390;2022-11-15T13:31:26;27.65;;;18.55;;
64085;SDS011;50333;47.436;21.390;2022-11-15T13:34:21;24.75;;;16.85;;
64085;SDS011;50333;47.436;21.390;2022-11-15T13:37:30;24.30;;;17.73;;
64085;SDS011;50333;47.436;21.390;2022-11-15T13:40:24;21.80;;;15.60;;
64085;SDS011;50333;47.436;21.390;2022-11-15T13:43:13;22.17;;;16.12;;
64085;SDS011;50333;47.436;21.390;2022-11-15T13:46:21;21.65;;;15.63;;
64085;SDS011;50333;47.436;21.390;2022-11-15T13:49:00;21.20;;;16.27;;
64085;SDS011;50333;47.436;21.390;2022-11-15T13:56:49;28.42;;;19.52;;
64085;SDS011;50333;47.436;21.390;2022-11-15T14:02:14;27.58;;;18.73;;
64085;SDS011;50333;47.436;21.390;2022-11-15T14:04:49;29.75;;;19.33;;
64085;SDS011;50333;47.436;21.390;2022-11-15T14:07:21;31.48;;;20.55;;
64085;SDS011;50333;47.436;21.390;2022-11-15T14:09:51;29.42;;;21.23;;
64085;SDS011;50333;47.436;21.390;2022-11-15T14:12:28;33.80;;;20.25;;
64085;SDS011;50333;47.436;21.390;2022-11-15T14:15:50;26.40;;;19.27;;
64085;SDS011;50333;47.436;21.390;2022-11-15T14:18:39;31.62;;;20.62;;
64085;SDS011;50333;47.436;21.390;2022-11-15T14:21:30;33.33;;;20.65;;
64085;SDS011;50333;47.436;21.390;2022-11-15T14:24:38;39.90;;;24.20;;
64085;SDS011;50333;47.436;21.390;2022-11-15T14:34:58;42.13;;;26.70;;
64085;SDS011;50333;47.436;21.390;2022-11-15T14:37:46;35.53;;;22.67;;
64085;SDS011;50333;47.436;21.390;2022-11-15T14:40:34;33.08;;;23.42;;
64085;SDS011;50333;47.436;21.390;2022-11-15T14:43:26;32.72;;;21.25;;
64085;SDS011;50333;47.436;21.390;2022-11-15T14:45:55;30.95;;;21.33;;
64085;SDS011;50333;47.436;21.390;2022-11-15T14:48:43;30.85;;;20.45;;
64085;SDS011;50333;47.436;21.390;2022-11-15T14:51:13;31.60;;;20.80;;
64085;SDS011;50333;47.436;21.390;2022-11-15T14:54:02;29.02;;;19.27;;
64085;SDS011;50333;47.436;21.390;2022-11-15T14:56:30;24.73;;;18.12;;
64085;SDS011;50333;47.436;21.390;2022-11-15T14:58:59;28.70;;;20.00;;
64085;SDS011;50333;47.436;21.390;2022-11-15T15:01:27;31.02;;;21.05;;
64085;SDS011;50333;47.436;21.390;2022-11-15T15:03:55;28.08;;;20.58;;
64085;SDS011;50333;47.436;21.390;2022-11-15T15:06:25;33.45;;;23.70;;
64085;SDS011;50333;47.436;21.390;2022-11-15T15:08:55;43.20;;;27.40;;
64085;SDS011;50333;47.436;21.390;2022-11-15T15:11:43;43.60;;;28.15;;
64085;SDS011;50333;47.436;21.390;2022-11-15T15:14:31;39.25;;;27.15;;
64085;SDS011;50333;47.436;21.390;2022-11-15T15:17:19;40.90;;;26.58;;
64085;SDS011;50333;47.436;21.390;2022-11-15T15:20:08;37.55;;;25.55;;
64085;SDS011;50333;47.436;21.390;2022-11-15T15:22:37;35.63;;;24.90;;
64085;SDS011;50333;47.436;21.390;2022-11-15T15:25:29;38.40;;;25.02;;
64085;SDS011;50333;47.436;21.390;2022-11-15T15:28:00;36.75;;;25.48;;
64085;SDS011;50333;47.436;21.390;2022-11-15T15:30:29;39.10;;;27.87;;
64085;SDS011;50333;47.436;21.390;2022-11-15T15:32:58;40.22;;;27.85;;
64085;SDS011;50333;47.436;21.390;2022-11-15T15:35:28;38.53;;;26.98;;
64085;SDS011;50333;47.436;21.390;2022-11-15T15:38:18;38.97;;;26.48;;
64085;SDS011;50333;47.436;21.390;2022-11-15T15:40:47;43.75;;;28.25;;
64085;SDS011;50333;47.436;21.390;2022-11-15T15:43:17;47.38;;;30.92;;
64085;SDS011;50333;47.436;21.390;2022-11-15T15:45:47;44.58;;;30.20;;
64085;SDS011;50333;47.436;21.390;2022-11-15T15:48:18;48.78;;;30.40;;
64085;SDS011;50333;47.436;21.390;2022-11-15T15:50:46;42.08;;;29.05;;
64085;SDS011;50333;47.436;21.390;2022-11-15T15:53:14;42.38;;;28.30;;
64085;SDS011;50333;47.436;21.390;2022-11-15T15:56:02;44.72;;;28.67;;
64085;SDS011;50333;47.436;21.390;2022-11-15T15:58:31;38.15;;;28.02;;
64085;SDS011;50333;47.436;21.390;2022-11-15T16:01:00;39.22;;;28.55;;
64085;SDS011;50333;47.436;21.390;2022-11-15T16:03:28;52.75;;;38.58;;
64085;SDS011;50333;47.436;21.390;2022-11-15T16:05:55;43.30;;;29.70;;
64085;SDS011;50333;47.436;21.390;2022-11-15T16:08:24;41.80;;;28.67;;
64085;SDS011;50333;47.436;21.390;2022-11-15T16:11:04;39.20;;;26.52;;
64085;SDS011;50333;47.436;21.390;2022-11-15T16:13:33;38.83;;;27.60;;
64085;SDS011;50333;47.436;21.390;2022-11-15T16:16:01;35.30;;;24.80;;
64085;SDS011;50333;47.436;21.390;2022-11-15T16:18:29;35.35;;;25.52;;
64085;SDS011;50333;47.436;21.390;2022-11-15T16:20:57;34.47;;;25.52;;
64085;SDS011;50333;47.436;21.390;2022-11-15T16:23:25;35.35;;;24.75;;
64085;SDS011;50333;47.436;21.390;2022-11-15T16:25:54;39.25;;;25.08;;
64085;SDS011;50333;47.436;21.390;2022-11-15T16:28:24;31.80;;;25.02;;
64085;SDS011;50333;47.436;21.390;2022-11-15T16:31:04;32.75;;;25.77;;
64085;SDS011;50333;47.436;21.390;2022-11-15T16:33:35;32.08;;;25.15;;
64085;SDS011;50333;47.436;21.390;2022-11-15T16:36:04;36.25;;;25.95;;
64085;SDS011;50333;47.436;21.390;2022-11-15T16:38:41;36.65;;;26.37;;
64085;SDS011;50333;47.436;21.390;2022-11-15T16:41:09;33.90;;;25.52;;
64085;SDS011;50333;47.436;21.390;2022-11-15T16:43:37;34.40;;;25.08;;
64085;SDS011;50333;47.436;21.390;2022-11-15T16:46:26;35.10;;;26.05;;
64085;SDS011;50333;47.436;21.390;2022-11-15T16:49:15;37.67;;;25.88;;
64085;SDS011;50333;47.436;21.390;2022-11-15T16:51:46;37.70;;;26.00;;
64085;SDS011;50333;47.436;21.390;2022-11-15T16:54:16;36.13;;;26.35;;
64085;SDS011;50333;47.436;21.390;2022-11-15T16:56:44;38.13;;;26.23;;
64085;SDS011;50333;47.436;21.390;2022-11-15T16:59:14;36.55;;;26.70;;
64085;SDS011;50333;47.436;21.390;2022-11-15T17:01:44;38.63;;;25.75;;
64085;SDS011;50333;47.436;21.390;2022-11-15T17:04:17;33.42;;;24.27;;
64085;SDS011;50333;47.436;21.390;2022-11-15T17:06:47;33.42;;;25.00;;
64085;SDS011;50333;47.436;21.390;2022-11-15T17:09:16;35.55;;;24.90;;
64085;SDS011;50333;47.436;21.390;2022-11-15T17:11:47;37.85;;;27.13;;
64085;SDS011;50333;47.436;21.390;2022-11-15T17:14:15;40.12;;;28.23;;
64085;SDS011;50333;47.436;21.390;2022-11-15T17:16:43;47.50;;;31.62;;
64085;SDS011;50333;47.436;21.390;2022-11-15T17:19:16;48.50;;;31.87;;
64085;SDS011;50333;47.436;21.390;2022-11-15T17:21:46;39.55;;;25.85;;
64085;SDS011;50333;47.436;21.390;2022-11-15T17:24:18;37.05;;;25.40;;
64085;SDS011;50333;47.436;21.390;2022-11-15T17:26:47;34.45;;;25.15;;
64085;SDS011;50333;47.436;21.390;2022-11-15T17:29:16;31.95;;;23.23;;
64085;SDS011;50333;47.436;21.390;2022-11-15T17:31:45;33.65;;;24.77;;
64085;SDS011;50333;47.436;21.390;2022-11-15T17:34:13;30.80;;;23.23;;
64085;SDS011;50333;47.436;21.390;2022-11-15T17:36:41;34.03;;;22.48;;
64085;SDS011;50333;47.436;21.390;2022-11-15T17:39:09;30.80;;;22.33;;
64085;SDS011;50333;47.436;21.390;2022-11-15T17:41:37;33.60;;;24.40;;
64085;SDS011;50333;47.436;21.390;2022-11-15T17:44:05;31.52;;;23.75;;
64085;SDS011;50333;47.436;21.390;2022-11-15T17:46:33;32.00;;;22.90;;
64085;SDS011;50333;47.436;21.390;2022-11-15T17:49:03;31.65;;;22.92;;
64085;SDS011;50333;47.436;21.390;2022-11-15T17:51:32;36.60;;;23.95;;
64085;SDS011;50333;47.436;21.390;2022-11-15T17:54:00;35.28;;;25.65;;
64085;SDS011;50333;47.436;21.390;2022-11-15T17:56:28;33.28;;;23.42;;
64085;SDS011;50333;47.436;21.390;2022-11-15T17:58:58;35.75;;;24.75;;
64085;SDS011;50333;47.436;21.390;2022-11-15T18:01:30;31.67;;;21.83;;
64085;SDS011;50333;47.436;21.390;2022-11-15T18:04:01;32.13;;;21.60;;
64085;SDS011;50333;47.436;21.390;2022-11-15T18:06:31;34.72;;;20.67;;
64085;SDS011;50333;47.436;21.390;2022-11-15T18:09:01;29.77;;;21.15;;
64085;SDS011;50333;47.436;21.390;2022-11-15T18:11:32;25.75;;;19.73;;
64085;SDS011;50333;47.436;21.390;2022-11-15T18:14:05;29.55;;;20.40;;
64085;SDS011;50333;47.436;21.390;2022-11-15T18:16:35;27.15;;;19.62;;
64085;SDS011;50333;47.436;21.390;2022-11-15T18:19:04;33.28;;;21.70;;
64085;SDS011;50333;47.436;21.390;2022-11-15T18:24:30;28.50;;;21.00;;
64085;SDS011;50333;47.436;21.390;2022-11-15T18:27:00;33.28;;;20.55;;
64085;SDS011;50333;47.436;21.390;2022-11-15T18:29:30;26.83;;;20.63;;
64085;SDS011;50333;47.436;21.390;2022-11-15T18:32:01;31.77;;;20.95;;
64085;SDS011;50333;47.436;21.390;2022-11-15T18:34:31;30.10;;;20.62;;
64085;SDS011;50333;47.436;21.390;2022-11-15T18:37:00;27.35;;;20.77;;